Time;durP1;ratioP1;P1;durP2;ratioP2;P2;SDS_P1;SDS_P2;PMS_P1;PMS_P2;Temp;Humidity;BMP_temperature;BMP_pressure;BME280_temperature;BME280_humidity;BME280_pressure;Samples;Min_cycle;Max_cycle;Signal;HPM_P1;HPM_P2
2022/07/11 00:00:00;;;;;;;2.90;1.43;;;;;;;;;;336451;29;806;-83
2022/07/11 00:00:12;;;;;;;3.05;1.48;;;;;;;;;;338200;29;1402;-83
2022/07/11 00:00:23;;;;;;;3.13;1.60;;;;;;;;;;334998;29;1352;-83
2022/07/11 00:00:34;;;;;;;2.65;1.58;;;;;;;;;;332592;29;1256;-94
2022/07/11 00:00:47;;;;;;;2.42;1.42;;;;;;;;;;333750;29;1289;-84
2022/07/11 00:00:58;;;;;;;2.47;1.50;;;;;;;;;;335481;29;1243;-83
2022/07/11 00:01:08;;;;;;;3.25;1.50;;;;;;;;;;336744;29;1205;-87
2022/07/11 00:01:19;;;;;;;3.88;1.60;;;;;;;;;;339223;29;897;-83
2022/07/11 00:01:30;;;;;;;3.47;1.50;;;;;;;;;;338899;29;892;-83
2022/07/11 00:01:41;;;;;;;3.13;1.60;;;;;;;;;;332813;29;1269;-95
2022/07/11 00:01:51;;;;;;;3.00;1.50;;;;;;;;;;333918;29;925;-83
2022/07/11 00:02:03;;;;;;;3.10;1.30;;;;;;;;;;332640;29;945;-84
2022/07/11 00:02:14;;;;;;;2.90;1.30;;;;;;;;;;333956;29;936;-84
2022/07/11 00:02:25;;;;;;;3.03;1.38;;;;;;;;;;335940;29;1205;-82
2022/07/11 00:02:36;;;;;;;3.15;1.40;;;;;;;;;;335019;29;928;-83
2022/07/11 00:02:46;;;;;;;3.10;1.55;;;;;;;;;;335160;29;940;-83
2022/07/11 00:02:57;;;;;;;3.80;1.60;;;;;;;;;;332654;29;823;-83
2022/07/11 00:03:07;;;;;;;3.58;1.60;;;;;;;;;;335136;29;1204;-82
2022/07/11 00:03:18;;;;;;;2.97;1.40;;;;;;;;;;334047;29;1397;-83
2022/07/11 00:03:28;;;;;;;4.82;1.50;;;;;;;;;;336482;29;1188;-83
2022/07/11 00:03:39;;;;;;;5.13;1.37;;;;;;;;;;336838;29;1372;-85
2022/07/11 00:03:49;;;;;;;5.43;1.50;;;;;;;;;;337208;29;1255;-95
2022/07/11 00:04:00;;;;;;;3.50;1.47;;;;;;;;;;335766;29;1153;-96
2022/07/11 00:04:11;;;;;;;3.58;1.60;;;;;;;;;;336131;29;834;-96
2022/07/11 00:04:22;;;;;;;2.80;1.65;;;;;;;;;;336253;29;1566;-82
2022/07/11 00:04:32;;;;;;;3.28;1.70;;;;;;;;;;335918;29;829;-82
2022/07/11 00:04:43;;;;;;;3.50;1.70;;;;;;;;;;336460;29;886;-84
2022/07/11 00:04:53;;;;;;;4.15;1.70;;;;;;;;;;334073;29;1246;-90
2022/07/11 00:05:05;;;;;;;4.83;1.60;;;;;;;;;;335429;29;847;-94
2022/07/11 00:05:15;;;;;;;4.18;1.58;;;;;;;;;;338483;29;916;-93
2022/07/11 00:05:26;;;;;;;3.07;1.60;;;;;;;;;;339282;29;1312;-83
2022/07/11 00:05:37;;;;;;;2.63;1.70;;;;;;;;;;336491;29;1508;-84
2022/07/11 00:05:47;;;;;;;3.38;2.00;;;;;;;;;;336299;29;865;-86
2022/07/11 00:05:58;;;;;;;3.43;2.07;;;;;;;;;;336139;29;833;-96
2022/07/11 00:06:12;;;;;;;3.55;1.67;;;;;;;;;;338840;29;813;-94
2022/07/11 00:06:23;;;;;;;2.97;1.58;;;;;;;;;;335225;29;1004;-83
2022/07/11 00:06:33;;;;;;;2.97;1.58;;;;;;;;;;336408;29;1513;-83
2022/07/11 00:06:44;;;;;;;4.30;1.53;;;;;;;;;;336185;29;735;-95
2022/07/11 00:06:54;;;;;;;5.78;1.73;;;;;;;;;;335081;29;1277;-83
2022/07/11 00:07:05;;;;;;;5.93;1.80;;;;;;;;;;336377;29;1297;-83
2022/07/11 00:07:15;;;;;;;4.32;1.90;;;;;;;;;;336635;29;841;-84
2022/07/11 00:07:26;;;;;;;2.92;1.75;;;;;;;;;;333557;29;1620;-83
2022/07/11 00:07:37;;;;;;;2.50;1.57;;;;;;;;;;332809;29;1155;-95
2022/07/11 00:07:47;;;;;;;2.97;1.38;;;;;;;;;;337585;29;1474;-83
2022/07/11 00:07:58;;;;;;;3.73;1.40;;;;;;;;;;335172;29;829;-82
2022/07/11 00:08:11;;;;;;;3.92;1.40;;;;;;;;;;334672;29;1323;-84
2022/07/11 00:08:22;;;;;;;3.60;1.50;;;;;;;;;;334458;29;1267;-84
2022/07/11 00:08:36;;;;;;;4.20;1.50;;;;;;;;;;336818;29;1431;-86
2022/07/11 00:08:47;;;;;;;2.90;1.42;;;;;;;;;;335180;29;1907;-87
2022/07/11 00:08:57;;;;;;;3.50;1.70;;;;;;;;;;335624;29;1520;-92
2022/07/11 00:09:11;;;;;;;3.80;1.90;;;;;;;;;;338126;29;1471;-83
2022/07/11 00:09:21;;;;;;;3.00;1.70;;;;;;;;;;334165;29;1303;-83
2022/07/11 00:09:32;;;;;;;3.80;1.50;;;;;;;;;;334703;29;1287;-83
2022/07/11 00:09:51;;;;;;;4.22;1.60;;;;;;;;;;335611;29;1425;-83
2022/07/11 00:10:05;;;;;;;5.25;1.60;;;;;;;;;;334978;29;866;-86
2022/07/11 00:10:16;;;;;;;6.07;1.63;;;;;;;;;;334729;29;926;-85
2022/07/11 00:10:26;;;;;;;4.95;1.80;;;;;;;;;;335088;29;953;-83
2022/07/11 00:10:37;;;;;;;4.20;1.80;;;;;;;;;;335944;29;1172;-83
2022/07/11 00:10:47;;;;;;;2.65;1.60;;;;;;;;;;336426;29;1041;-83
2022/07/11 00:10:58;;;;;;;2.33;1.70;;;;;;;;;;337725;29;868;-83
2022/07/11 00:11:09;;;;;;;2.58;1.70;;;;;;;;;;337756;29;885;-83
2022/07/11 00:11:19;;;;;;;3.20;1.67;;;;;;;;;;337636;29;793;-83
2022/07/11 00:11:30;;;;;;;3.15;1.50;;;;;;;;;;337391;29;789;-83
2022/07/11 00:11:40;;;;;;;3.23;1.50;;;;;;;;;;337706;29;904;-83
2022/07/11 00:11:51;;;;;;;2.67;1.50;;;;;;;;;;337661;29;888;-83
2022/07/11 00:12:01;;;;;;;3.47;1.63;;;;;;;;;;336421;29;865;-83
2022/07/11 00:12:12;;;;;;;4.43;1.80;;;;;;;;;;336304;29;659;-82
2022/07/11 00:12:26;;;;;;;4.72;1.88;;;;;;;;;;335401;29;854;-95
2022/07/11 00:12:36;;;;;;;3.78;1.80;;;;;;;;;;334903;29;1031;-84
2022/07/11 00:12:47;;;;;;;4.18;1.83;;;;;;;;;;335263;29;830;-95
2022/07/11 00:12:57;;;;;;;5.77;2.20;;;;;;;;;;335044;29;1160;-93
2022/07/11 00:13:08;;;;;;;5.32;2.08;;;;;;;;;;334338;29;798;-95
2022/07/11 00:13:18;;;;;;;5.97;1.87;;;;;;;;;;335027;29;1301;-83
2022/07/11 00:13:29;;;;;;;4.82;1.73;;;;;;;;;;334887;29;955;-82
2022/07/11 00:13:39;;;;;;;5.73;1.87;;;;;;;;;;335014;29;889;-83
2022/07/11 00:13:50;;;;;;;4.40;1.83;;;;;;;;;;334998;29;841;-83
2022/07/11 00:14:00;;;;;;;3.95;1.75;;;;;;;;;;335116;29;574;-82
2022/07/11 00:14:11;;;;;;;3.08;1.70;;;;;;;;;;335347;29;1268;-91
2022/07/11 00:14:21;;;;;;;3.73;1.90;;;;;;;;;;335606;29;829;-96
2022/07/11 00:14:32;;;;;;;3.50;1.77;;;;;;;;;;334877;29;806;-82
2022/07/11 00:14:42;;;;;;;4.43;1.70;;;;;;;;;;333706;29;1406;-83
2022/07/11 00:14:54;;;;;;;3.72;1.40;;;;;;;;;;332557;29;1600;-83
2022/07/11 00:15:07;;;;;;;3.58;1.60;;;;;;;;;;333866;29;1247;-96
2022/07/11 00:15:18;;;;;;;3.03;1.70;;;;;;;;;;333779;29;891;-83
2022/07/11 00:15:28;;;;;;;3.47;1.80;;;;;;;;;;335691;29;865;-95
2022/07/11 00:15:39;;;;;;;3.78;1.67;;;;;;;;;;333556;29;944;-83
2022/07/11 00:15:49;;;;;;;4.73;1.90;;;;;;;;;;335161;29;905;-82
2022/07/11 00:16:00;;;;;;;4.28;1.90;;;;;;;;;;334272;29;842;-96
2022/07/11 00:16:10;;;;;;;3.50;1.70;;;;;;;;;;333805;29;1285;-89
2022/07/11 00:16:21;;;;;;;2.33;1.50;;;;;;;;;;333847;29;889;-83
2022/07/11 00:16:31;;;;;;;3.67;1.63;;;;;;;;;;335198;29;1181;-83
2022/07/11 00:16:42;;;;;;;4.10;1.70;;;;;;;;;;336219;29;1207;-82
2022/07/11 00:16:53;;;;;;;5.63;1.85;;;;;;;;;;333751;29;1254;-83
2022/07/11 00:17:03;;;;;;;4.23;1.90;;;;;;;;;;332567;29;837;-85
2022/07/11 00:17:14;;;;;;;4.43;1.80;;;;;;;;;;336424;29;1343;-83
2022/07/11 00:17:27;;;;;;;3.40;1.60;;;;;;;;;;336476;29;806;-83
2022/07/11 00:17:38;;;;;;;3.22;1.60;;;;;;;;;;335185;29;1298;-95
2022/07/11 00:17:48;;;;;;;3.27;1.60;;;;;;;;;;335087;29;818;-83
2022/07/11 00:17:59;;;;;;;2.60;1.60;;;;;;;;;;336259;29;1424;-82
2022/07/11 00:18:09;;;;;;;2.43;1.67;;;;;;;;;;339032;29;1193;-95
2022/07/11 00:18:23;;;;;;;3.60;1.85;;;;;;;;;;336981;29;825;-94
2022/07/11 00:18:34;;;;;;;4.28;1.83;;;;;;;;;;337411;29;935;-94
2022/07/11 00:18:44;;;;;;;3.47;1.63;;;;;;;;;;335291;29;850;-95
2022/07/11 00:18:55;;;;;;;3.75;1.55;;;;;;;;;;335238;29;814;-88
2022/07/11 00:19:05;;;;;;;3.47;1.63;;;;;;;;;;334412;29;834;-84
2022/07/11 00:19:20;;;;;;;3.45;1.65;;;;;;;;;;337840;29;1181;-83
2022/07/11 00:19:30;;;;;;;3.85;1.50;;;;;;;;;;337707;29;916;-83
2022/07/11 00:19:41;;;;;;;4.10;1.40;;;;;;;;;;336542;29;1284;-83
2022/07/11 00:19:51;;;;;;;3.00;1.38;;;;;;;;;;333817;29;885;-83
2022/07/11 00:20:02;;;;;;;3.03;1.43;;;;;;;;;;333998;29;1300;-95
2022/07/11 00:20:13;;;;;;;3.20;1.40;;;;;;;;;;334097;29;904;-96
2022/07/11 00:20:23;;;;;;;3.67;1.47;;;;;;;;;;335137;29;841;-83
2022/07/11 00:20:34;;;;;;;3.50;1.60;;;;;;;;;;334880;29;581;-94
2022/07/11 00:20:45;;;;;;;4.47;1.70;;;;;;;;;;335102;29;869;-83
2022/07/11 00:20:55;;;;;;;5.13;1.70;;;;;;;;;;334989;29;1172;-83
2022/07/11 00:21:05;;;;;;;4.85;1.50;;;;;;;;;;335073;29;1292;-83
2022/07/11 00:21:16;;;;;;;3.67;1.40;;;;;;;;;;335794;29;830;-83
2022/07/11 00:21:26;;;;;;;3.95;1.40;;;;;;;;;;335630;29;1363;-83
2022/07/11 00:21:37;;;;;;;3.40;1.40;;;;;;;;;;334722;29;1412;-83
2022/07/11 00:21:48;;;;;;;2.93;1.50;;;;;;;;;;335253;29;924;-83
2022/07/11 00:21:59;;;;;;;2.50;1.50;;;;;;;;;;337541;29;1393;-83
2022/07/11 00:22:09;;;;;;;3.50;1.60;;;;;;;;;;337783;29;1267;-83
2022/07/11 00:22:20;;;;;;;3.67;1.48;;;;;;;;;;336815;29;1291;-84
2022/07/11 00:22:32;;;;;;;4.25;1.50;;;;;;;;;;333788;29;1211;-83
2022/07/11 00:22:42;;;;;;;4.65;1.63;;;;;;;;;;334253;29;950;-95
2022/07/11 00:22:53;;;;;;;5.35;1.65;;;;;;;;;;333800;29;909;-83
2022/07/11 00:23:06;;;;;;;5.47;1.60;;;;;;;;;;333790;29;1240;-88
2022/07/11 00:23:16;;;;;;;3.67;1.42;;;;;;;;;;334026;29;913;-87
2022/07/11 00:23:27;;;;;;;3.87;1.43;;;;;;;;;;338907;29;896;-83
2022/07/11 00:23:37;;;;;;;3.88;1.60;;;;;;;;;;338570;29;1293;-83
2022/07/11 00:23:48;;;;;;;3.83;1.70;;;;;;;;;;335019;29;1441;-83
2022/07/11 00:23:58;;;;;;;2.92;1.67;;;;;;;;;;335008;29;1613;-83
2022/07/11 00:24:10;;;;;;;4.67;1.60;;;;;;;;;;336814;29;920;-84
2022/07/11 00:24:21;;;;;;;5.53;1.70;;;;;;;;;;336292;29;1431;-83
2022/07/11 00:24:32;;;;;;;5.07;1.50;;;;;;;;;;335117;29;893;-83
2022/07/11 00:24:45;;;;;;;4.70;1.73;;;;;;;;;;332701;29;1475;-96
2022/07/11 00:24:56;;;;;;;4.90;1.80;;;;;;;;;;332505;29;1578;-83
2022/07/11 00:25:07;;;;;;;4.07;1.73;;;;;;;;;;335128;29;1179;-83
2022/07/11 00:25:17;;;;;;;2.70;1.38;;;;;;;;;;335123;29;968;-83
2022/07/11 00:25:28;;;;;;;3.67;1.50;;;;;;;;;;335050;29;1278;-83
2022/07/11 00:25:38;;;;;;;4.10;1.52;;;;;;;;;;334745;29;845;-83
2022/07/11 00:25:49;;;;;;;3.30;1.57;;;;;;;;;;335015;29;863;-83
2022/07/11 00:25:59;;;;;;;2.53;1.50;;;;;;;;;;335497;29;844;-96
2022/07/11 00:26:10;;;;;;;2.57;1.53;;;;;;;;;;338117;29;844;-94
2022/07/11 00:26:20;;;;;;;3.30;1.60;;;;;;;;;;336912;29;935;-91
2022/07/11 00:26:31;;;;;;;3.20;1.50;;;;;;;;;;337584;29;1154;-82
2022/07/11 00:26:41;;;;;;;3.87;1.70;;;;;;;;;;334946;29;877;-82
2022/07/11 00:26:52;;;;;;;3.60;1.67;;;;;;;;;;336274;29;935;-83
2022/07/11 00:27:02;;;;;;;4.30;1.83;;;;;;;;;;336202;29;1216;-94
2022/07/11 00:27:13;;;;;;;3.40;1.67;;;;;;;;;;333679;29;1222;-83
2022/07/11 00:27:24;;;;;;;2.88;1.70;;;;;;;;;;336279;29;1289;-83
2022/07/11 00:27:34;;;;;;;3.22;1.60;;;;;;;;;;337445;29;1203;-83
2022/07/11 00:27:47;;;;;;;3.83;1.83;;;;;;;;;;335168;29;1168;-96
2022/07/11 00:27:58;;;;;;;4.00;1.75;;;;;;;;;;336136;29;1259;-84
2022/07/11 00:28:08;;;;;;;2.90;1.70;;;;;;;;;;336278;29;852;-82
2022/07/11 00:28:19;;;;;;;3.33;1.50;;;;;;;;;;336297;29;1305;-83
2022/07/11 00:28:29;;;;;;;3.13;1.55;;;;;;;;;;332552;29;1261;-82
2022/07/11 00:28:40;;;;;;;3.80;1.53;;;;;;;;;;337681;29;1151;-83
2022/07/11 00:28:50;;;;;;;3.22;1.50;;;;;;;;;;337571;29;1159;-83
2022/07/11 00:29:07;;;;;;;4.93;1.57;;;;;;;;;;337432;29;1227;-83
2022/07/11 00:29:18;;;;;;;5.65;1.60;;;;;;;;;;336308;29;1211;-83
2022/07/11 00:29:29;;;;;;;6.18;1.65;;;;;;;;;;332932;29;857;-83
2022/07/11 00:29:39;;;;;;;4.13;1.80;;;;;;;;;;333671;29;1353;-83
2022/07/11 00:29:49;;;;;;;3.85;1.73;;;;;;;;;;333839;29;904;-83
2022/07/11 00:30:00;;;;;;;3.73;1.70;;;;;;;;;;336201;29;833;-83
2022/07/11 00:30:11;;;;;;;3.85;1.60;;;;;;;;;;338304;29;939;-95
2022/07/11 00:30:21;;;;;;;3.73;1.50;;;;;;;;;;337632;29;856;-83
2022/07/11 00:30:31;;;;;;;3.38;1.70;;;;;;;;;;333759;29;1338;-83
2022/07/11 00:30:42;;;;;;;2.83;1.77;;;;;;;;;;331156;29;1148;-96
2022/07/11 00:30:52;;;;;;;3.03;1.85;;;;;;;;;;333862;29;1589;-96
2022/07/11 00:31:03;;;;;;;2.57;1.53;;;;;;;;;;335255;29;876;-94
2022/07/11 00:31:14;;;;;;;2.65;1.40;;;;;;;;;;334158;29;1401;-83
2022/07/11 00:31:24;;;;;;;3.00;1.50;;;;;;;;;;335005;29;1144;-83
2022/07/11 00:31:34;;;;;;;4.57;1.80;;;;;;;;;;336291;29;920;-83
2022/07/11 00:31:45;;;;;;;4.10;1.90;;;;;;;;;;332365;29;570;-82
2022/07/11 00:31:56;;;;;;;3.85;1.85;;;;;;;;;;335031;29;1414;-84
2022/07/11 00:32:07;;;;;;;2.53;1.60;;;;;;;;;;333778;29;1489;-83
2022/07/11 00:32:18;;;;;;;2.40;1.48;;;;;;;;;;336310;29;1459;-83
2022/07/11 00:32:28;;;;;;;2.10;1.40;;;;;;;;;;333890;29;857;-83
2022/07/11 00:32:39;;;;;;;2.87;1.43;;;;;;;;;;333755;29;929;-83
2022/07/11 00:32:49;;;;;;;4.05;1.50;;;;;;;;;;335019;29;823;-83
2022/07/11 00:33:00;;;;;;;4.70;1.60;;;;;;;;;;335015;29;900;-91
2022/07/11 00:33:13;;;;;;;4.38;1.63;;;;;;;;;;333939;29;932;-83
2022/07/11 00:33:24;;;;;;;5.10;1.90;;;;;;;;;;332642;29;1334;-96
2022/07/11 00:33:34;;;;;;;4.57;1.75;;;;;;;;;;335063;29;1296;-84
2022/07/11 00:33:47;;;;;;;4.20;1.70;;;;;;;;;;336406;29;967;-83
2022/07/11 00:33:57;;;;;;;3.28;1.65;;;;;;;;;;333743;29;881;-83
2022/07/11 00:34:08;;;;;;;2.63;1.50;;;;;;;;;;337681;29;1409;-83
2022/07/11 00:34:19;;;;;;;2.37;1.33;;;;;;;;;;337596;29;1286;-83
2022/07/11 00:34:29;;;;;;;3.95;1.40;;;;;;;;;;335994;29;1391;-88
2022/07/11 00:34:39;;;;;;;5.83;1.60;;;;;;;;;;334613;29;1286;-83
2022/07/11 00:34:51;;;;;;;6.57;1.80;;;;;;;;;;333740;29;1263;-83
2022/07/11 00:35:04;;;;;;;5.10;1.77;;;;;;;;;;336350;29;915;-88
2022/07/11 00:35:14;;;;;;;3.55;1.58;;;;;;;;;;336222;29;1238;-83
2022/07/11 00:35:25;;;;;;;3.07;1.50;;;;;;;;;;336302;29;1175;-83
2022/07/11 00:35:35;;;;;;;3.30;1.50;;;;;;;;;;333780;29;900;-83
2022/07/11 00:35:46;;;;;;;3.63;1.60;;;;;;;;;;338952;29;1269;-96
2022/07/11 00:35:56;;;;;;;4.47;1.73;;;;;;;;;;338145;29;876;-96
2022/07/11 00:36:11;;;;;;;3.97;1.75;;;;;;;;;;336265;29;908;-83
2022/07/11 00:36:22;;;;;;;3.97;1.70;;;;;;;;;;335031;29;861;-83
2022/07/11 00:36:32;;;;;;;4.80;1.77;;;;;;;;;;333809;29;897;-83
2022/07/11 00:36:43;;;;;;;4.87;1.70;;;;;;;;;;334180;29;861;-95
2022/07/11 00:36:54;;;;;;;3.85;1.67;;;;;;;;;;332697;29;884;-92
2022/07/11 00:37:04;;;;;;;2.77;1.80;;;;;;;;;;335364;29;810;-95
2022/07/11 00:37:15;;;;;;;3.08;1.85;;;;;;;;;;333873;29;952;-95
2022/07/11 00:37:25;;;;;;;3.30;1.70;;;;;;;;;;332582;29;1335;-84
2022/07/11 00:37:36;;;;;;;3.15;1.52;;;;;;;;;;336537;29;864;-95
2022/07/11 00:37:46;;;;;;;2.97;1.50;;;;;;;;;;335002;29;806;-95
2022/07/11 00:37:57;;;;;;;4.38;1.50;;;;;;;;;;333839;29;782;-83
2022/07/11 00:38:07;;;;;;;4.30;1.47;;;;;;;;;;333991;29;1272;-91
2022/07/11 00:38:18;;;;;;;4.32;1.40;;;;;;;;;;334536;29;1195;-96
2022/07/11 00:38:28;;;;;;;3.93;1.30;;;;;;;;;;333806;29;1391;-83
2022/07/11 00:38:39;;;;;;;4.23;1.40;;;;;;;;;;336348;29;849;-82
2022/07/11 00:38:50;;;;;;;4.22;1.50;;;;;;;;;;334972;29;1251;-83
2022/07/11 00:39:00;;;;;;;3.27;1.63;;;;;;;;;;335259;29;825;-84
2022/07/11 00:39:11;;;;;;;3.47;1.58;;;;;;;;;;335300;29;872;-82
2022/07/11 00:39:21;;;;;;;2.63;1.53;;;;;;;;;;336200;29;1119;-83
2022/07/11 00:39:32;;;;;;;2.65;1.35;;;;;;;;;;338235;29;845;-83
2022/07/11 00:39:43;;;;;;;2.63;1.60;;;;;;;;;;336348;29;778;-93
2022/07/11 00:39:54;;;;;;;2.88;1.50;;;;;;;;;;337863;29;837;-91
2022/07/11 00:40:05;;;;;;;3.60;1.70;;;;;;;;;;335332;29;1401;-84
2022/07/11 00:40:15;;;;;;;3.42;1.60;;;;;;;;;;334908;29;1362;-83
2022/07/11 00:40:26;;;;;;;3.35;1.58;;;;;;;;;;333877;29;833;-84
2022/07/11 00:40:37;;;;;;;3.63;1.60;;;;;;;;;;337874;29;868;-93
2022/07/11 00:40:47;;;;;;;3.40;1.52;;;;;;;;;;337338;29;1306;-83
2022/07/11 00:40:57;;;;;;;3.43;1.70;;;;;;;;;;339228;29;1168;-83
2022/07/11 00:41:08;;;;;;;2.83;1.60;;;;;;;;;;337031;29;873;-83
2022/07/11 00:41:18;;;;;;;4.17;1.70;;;;;;;;;;336738;29;900;-83
2022/07/11 00:41:29;;;;;;;4.22;1.70;;;;;;;;;;335331;29;890;-83
2022/07/11 00:41:39;;;;;;;3.90;1.57;;;;;;;;;;336981;29;789;-95
2022/07/11 00:41:50;;;;;;;2.63;1.50;;;;;;;;;;334805;29;881;-83
2022/07/11 00:42:00;;;;;;;2.87;1.37;;;;;;;;;;333837;29;873;-82
2022/07/11 00:42:11;;;;;;;3.00;1.58;;;;;;;;;;334021;29;830;-95
2022/07/11 00:42:21;;;;;;;3.33;1.63;;;;;;;;;;335029;29;975;-83
2022/07/11 00:42:32;;;;;;;4.72;1.77;;;;;;;;;;335609;29;873;-83
2022/07/11 00:42:42;;;;;;;5.00;2.00;;;;;;;;;;332046;29;1319;-83
2022/07/11 00:42:53;;;;;;;4.97;2.03;;;;;;;;;;332566;29;866;-84
2022/07/11 00:43:03;;;;;;;3.10;2.00;;;;;;;;;;336863;29;1207;-96
2022/07/11 00:43:18;;;;;;;2.67;1.65;;;;;;;;;;333685;29;1622;-83
2022/07/11 00:43:41;;;;;;;2.80;1.50;;;;;;;;;;332488;29;1598;-83
2022/07/11 00:44:09;;;;;;;3.17;1.48;;;;;;;;;;335784;29;1046;-83
2022/07/11 00:44:20;;;;;;;6.38;1.92;;;;;;;;;;335008;29;861;-83
2022/07/11 00:44:30;;;;;;;3.97;1.80;;;;;;;;;;336996;29;1015;-83
2022/07/11 00:44:41;;;;;;;3.50;1.85;;;;;;;;;;339419;29;912;-83
2022/07/11 00:44:51;;;;;;;3.47;2.03;;;;;;;;;;336108;29;880;-83
2022/07/11 00:45:04;;;;;;;2.20;1.88;;;;;;;;;;336148;29;1416;-95
2022/07/11 00:45:14;;;;;;;1.65;1.30;;;;;;;;;;334946;29;1273;-83
2022/07/11 00:45:25;;;;;;;1.70;1.27;;;;;;;;;;337505;29;1407;-85
2022/07/11 00:45:36;;;;;;;2.50;1.30;;;;;;;;;;336521;29;1190;-87
2022/07/11 00:45:50;;;;;;;3.10;1.40;;;;;;;;;;334865;29;1114;-85
2022/07/11 00:46:01;;;;;;;2.85;1.48;;;;;;;;;;334640;29;833;-83
2022/07/11 00:46:11;;;;;;;3.77;1.70;;;;;;;;;;334167;29;1092;-95
2022/07/11 00:46:22;;;;;;;5.03;1.70;;;;;;;;;;333875;29;909;-83
2022/07/11 00:46:32;;;;;;;4.63;1.60;;;;;;;;;;332552;29;1231;-83
2022/07/11 00:46:43;;;;;;;4.13;1.58;;;;;;;;;;333415;29;1183;-83
2022/07/11 00:46:54;;;;;;;2.70;1.50;;;;;;;;;;336291;29;1191;-88
2022/07/11 00:47:09;;;;;;;2.50;1.58;;;;;;;;;;337774;29;838;-83
2022/07/11 00:47:19;;;;;;;3.37;1.70;;;;;;;;;;333804;29;833;-83
2022/07/11 00:47:30;;;;;;;4.00;1.60;;;;;;;;;;333099;29;833;-96
2022/07/11 00:47:40;;;;;;;4.13;1.63;;;;;;;;;;335040;29;989;-83
2022/07/11 00:47:51;;;;;;;4.13;1.63;;;;;;;;;;334680;29;1591;-83
2022/07/11 00:48:04;;;;;;;2.83;1.60;;;;;;;;;;337734;29;887;-83
2022/07/11 00:48:15;;;;;;;2.40;1.60;;;;;;;;;;337930;29;936;-95
2022/07/11 00:48:25;;;;;;;3.50;1.67;;;;;;;;;;339390;29;856;-83
2022/07/11 00:48:36;;;;;;;3.22;1.70;;;;;;;;;;335252;29;1298;-91
2022/07/11 00:48:46;;;;;;;3.53;1.77;;;;;;;;;;333984;29;1963;-83
2022/07/11 00:48:58;;;;;;;3.15;2.03;;;;;;;;;;333119;29;849;-89
2022/07/11 00:49:08;;;;;;;4.18;2.10;;;;;;;;;;334418;29;1435;-83
2022/07/11 00:49:19;;;;;;;4.47;2.10;;;;;;;;;;336199;29;1374;-82
2022/07/11 00:49:29;;;;;;;4.07;1.80;;;;;;;;;;336541;29;1292;-96
2022/07/11 00:49:40;;;;;;;2.88;1.70;;;;;;;;;;337519;29;1561;-83
2022/07/11 00:49:50;;;;;;;2.50;1.50;;;;;;;;;;335137;29;924;-95
2022/07/11 00:50:01;;;;;;;3.20;1.70;;;;;;;;;;333672;29;1420;-82
2022/07/11 00:50:11;;;;;;;4.13;1.87;;;;;;;;;;335265;29;1406;-83
2022/07/11 00:50:21;;;;;;;5.60;2.20;;;;;;;;;;336329;29;836;-83
2022/07/11 00:50:32;;;;;;;4.50;2.00;;;;;;;;;;337493;29;1265;-83
2022/07/11 00:50:42;;;;;;;3.70;1.77;;;;;;;;;;337614;29;943;-88
2022/07/11 00:50:53;;;;;;;2.80;1.60;;;;;;;;;;332459;29;933;-89
2022/07/11 00:51:04;;;;;;;3.40;1.65;;;;;;;;;;336363;29;689;-90
2022/07/11 00:51:14;;;;;;;3.63;1.67;;;;;;;;;;335138;29;913;-94
2022/07/11 00:51:25;;;;;;;3.88;1.65;;;;;;;;;;333619;29;1368;-83
2022/07/11 00:51:36;;;;;;;3.80;1.63;;;;;;;;;;336258;29;1503;-83
2022/07/11 00:51:46;;;;;;;4.77;1.63;;;;;;;;;;337533;29;1257;-95
2022/07/11 00:51:57;;;;;;;5.40;1.77;;;;;;;;;;335513;29;1156;-95
2022/07/11 00:52:10;;;;;;;5.07;1.70;;;;;;;;;;334101;29;798;-95
2022/07/11 00:52:23;;;;;;;4.05;1.80;;;;;;;;;;334418;29;877;-89
2022/07/11 00:52:34;;;;;;;3.30;1.92;;;;;;;;;;333694;29;976;-87
2022/07/11 00:52:45;;;;;;;2.90;1.88;;;;;;;;;;332312;29;920;-83
2022/07/11 00:53:04;;;;;;;3.57;1.70;;;;;;;;;;334004;29;1441;-87
2022/07/11 00:53:14;;;;;;;4.07;1.92;;;;;;;;;;334996;29;920;-83
2022/07/11 00:53:27;;;;;;;3.83;2.05;;;;;;;;;;337509;29;1365;-83
2022/07/11 00:53:38;;;;;;;3.50;1.80;;;;;;;;;;337785;29;1369;-84
2022/07/11 00:53:52;;;;;;;3.38;1.67;;;;;;;;;;333454;29;1218;-84
2022/07/11 00:54:06;;;;;;;2.50;1.42;;;;;;;;;;336538;29;1238;-95
2022/07/11 00:54:19;;;;;;;2.25;1.40;;;;;;;;;;336826;29;893;-83
2022/07/11 00:54:29;;;;;;;2.17;1.50;;;;;;;;;;336343;29;920;-83
2022/07/11 00:54:39;;;;;;;2.90;1.65;;;;;;;;;;334045;29;901;-90
2022/07/11 00:54:50;;;;;;;3.10;1.73;;;;;;;;;;334990;29;1202;-88
2022/07/11 00:55:00;;;;;;;3.63;1.73;;;;;;;;;;337468;29;1323;-83
2022/07/11 00:55:12;;;;;;;3.10;1.57;;;;;;;;;;337564;29;1326;-84
2022/07/11 00:55:23;;;;;;;3.25;1.70;;;;;;;;;;336984;29;912;-84
2022/07/11 00:55:34;;;;;;;2.93;1.70;;;;;;;;;;337475;29;833;-87
2022/07/11 00:55:44;;;;;;;3.35;1.83;;;;;;;;;;333775;29;640;-83
2022/07/11 00:55:55;;;;;;;3.13;1.60;;;;;;;;;;333548;29;854;-93
2022/07/11 00:56:07;;;;;;;2.70;1.50;;;;;;;;;;333385;29;818;-91
2022/07/11 00:56:19;;;;;;;2.50;1.50;;;;;;;;;;332502;29;914;-82
2022/07/11 00:56:30;;;;;;;4.40;1.73;;;;;;;;;;331711;29;877;-89
2022/07/11 00:56:40;;;;;;;4.13;1.67;;;;;;;;;;331283;29;861;-83
2022/07/11 00:56:51;;;;;;;3.87;1.50;;;;;;;;;;331280;29;778;-82
2022/07/11 00:57:04;;;;;;;2.67;1.40;;;;;;;;;;331273;29;906;-83
2022/07/11 00:57:15;;;;;;;2.80;1.42;;;;;;;;;;332555;29;885;-82
2022/07/11 00:57:25;;;;;;;3.27;1.60;;;;;;;;;;331241;29;920;-83
2022/07/11 00:57:36;;;;;;;3.70;1.63;;;;;;;;;;332074;29;886;-84
2022/07/11 00:57:46;;;;;;;3.33;1.60;;;;;;;;;;335194;29;829;-82
2022/07/11 00:57:57;;;;;;;3.08;1.55;;;;;;;;;;335937;29;880;-83
2022/07/11 00:58:08;;;;;;;2.20;1.40;;;;;;;;;;335735;29;838;-85
2022/07/11 00:58:19;;;;;;;3.78;1.70;;;;;;;;;;336539;29;995;-84
2022/07/11 00:58:29;;;;;;;3.67;1.70;;;;;;;;;;336419;29;848;-83
2022/07/11 00:58:40;;;;;;;4.07;1.90;;;;;;;;;;332844;29;1513;-83
2022/07/11 00:58:50;;;;;;;3.20;1.73;;;;;;;;;;336146;29;817;-85
2022/07/11 00:59:01;;;;;;;3.37;1.90;;;;;;;;;;336353;29;794;-83
2022/07/11 00:59:11;;;;;;;3.10;1.70;;;;;;;;;;337739;29;962;-83
2022/07/11 00:59:22;;;;;;;3.33;1.77;;;;;;;;;;333753;29;1463;-83
2022/07/11 00:59:42;;;;;;;4.37;1.70;;;;;;;;;;338768;24;1877;-86
2022/07/11 00:59:58;;;;;;;3.88;1.70;;;;;;;;;;334512;29;1719;-83
2022/07/11 01:00:10;;;;;;;3.47;1.60;;;;;;;;;;337554;29;876;-83
2022/07/11 01:00:21;;;;;;;3.13;1.50;;;;;;;;;;337300;29;908;-86
2022/07/11 01:00:31;;;;;;;3.63;1.58;;;;;;;;;;338421;29;892;-83
2022/07/11 01:00:42;;;;;;;3.33;1.50;;;;;;;;;;334782;29;1399;-82
2022/07/11 01:00:52;;;;;;;3.45;1.42;;;;;;;;;;338427;29;1325;-83
2022/07/11 01:01:03;;;;;;;3.00;1.40;;;;;;;;;;335256;29;905;-86
2022/07/11 01:01:14;;;;;;;3.20;1.57;;;;;;;;;;333708;29;1185;-82
2022/07/11 01:01:24;;;;;;;2.97;1.65;;;;;;;;;;335095;29;956;-83
2022/07/11 01:01:37;;;;;;;3.43;1.70;;;;;;;;;;337436;29;1213;-83
2022/07/11 01:01:47;;;;;;;3.10;1.40;;;;;;;;;;336373;29;873;-85
2022/07/11 01:01:58;;;;;;;4.03;1.70;;;;;;;;;;335871;29;862;-84
2022/07/11 01:02:08;;;;;;;3.80;1.77;;;;;;;;;;336567;29;1496;-83
2022/07/11 01:02:19;;;;;;;3.35;1.98;;;;;;;;;;336376;29;872;-83
2022/07/11 01:02:29;;;;;;;4.20;2.13;;;;;;;;;;336345;29;837;-83
2022/07/11 01:02:44;;;;;;;4.43;2.20;;;;;;;;;;336427;29;1482;-83
2022/07/11 01:02:54;;;;;;;4.00;1.90;;;;;;;;;;336281;29;924;-83
2022/07/11 01:03:05;;;;;;;3.03;1.50;;;;;;;;;;338004;29;916;-84
2022/07/11 01:03:15;;;;;;;3.53;1.42;;;;;;;;;;338073;29;794;-83
2022/07/11 01:03:35;;;;;;;3.78;1.75;;;;;;;;;;332645;29;1324;-83
2022/07/11 01:03:46;;;;;;;2.92;1.73;;;;;;;;;;333652;29;916;-83
2022/07/11 01:03:56;;;;;;;3.53;1.50;;;;;;;;;;332269;29;898;-83
2022/07/11 01:04:08;;;;;;;3.13;1.40;;;;;;;;;;334211;29;979;-83
2022/07/11 01:04:18;;;;;;;3.08;1.40;;;;;;;;;;333817;29;984;-82
2022/07/11 01:04:32;;;;;;;3.03;1.33;;;;;;;;;;333810;29;927;-83
2022/07/11 01:04:42;;;;;;;3.85;1.50;;;;;;;;;;333573;29;928;-83
2022/07/11 01:04:53;;;;;;;3.10;1.50;;;;;;;;;;333923;29;947;-83
2022/07/11 01:05:04;;;;;;;2.53;1.40;;;;;;;;;;333978;29;814;-90
2022/07/11 01:05:14;;;;;;;2.58;1.50;;;;;;;;;;335823;29;849;-82
2022/07/11 01:05:24;;;;;;;3.63;1.60;;;;;;;;;;336785;29;810;-84
2022/07/11 01:05:35;;;;;;;4.68;1.90;;;;;;;;;;335701;29;963;-82
2022/07/11 01:05:46;;;;;;;3.75;1.63;;;;;;;;;;335259;29;794;-83
2022/07/11 01:05:56;;;;;;;3.33;1.60;;;;;;;;;;337599;29;1260;-84
2022/07/11 01:06:08;;;;;;;3.20;1.30;;;;;;;;;;336300;29;806;-83
2022/07/11 01:06:19;;;;;;;4.20;1.58;;;;;;;;;;334584;29;877;-83
2022/07/11 01:06:32;;;;;;;4.50;1.60;;;;;;;;;;337545;29;1258;-83
2022/07/11 01:06:43;;;;;;;4.68;1.75;;;;;;;;;;337561;29;1067;-83
2022/07/11 01:06:53;;;;;;;4.17;1.70;;;;;;;;;;337977;29;790;-83
2022/07/11 01:07:04;;;;;;;3.45;1.70;;;;;;;;;;336779;29;841;-85
2022/07/11 01:07:14;;;;;;;4.03;1.60;;;;;;;;;;333806;29;901;-83
2022/07/11 01:07:29;;;;;;;3.53;1.55;;;;;;;;;;335061;29;860;-83
2022/07/11 01:07:40;;;;;;;4.15;1.60;;;;;;;;;;337338;29;916;-84
2022/07/11 01:07:51;;;;;;;3.97;1.63;;;;;;;;;;337891;29;802;-84
2022/07/11 01:08:09;;;;;;;3.38;1.50;;;;;;;;;;333753;29;1468;-83
2022/07/11 01:08:20;;;;;;;3.55;1.60;;;;;;;;;;335087;29;923;-82
2022/07/11 01:08:31;;;;;;;3.60;1.50;;;;;;;;;;336868;29;1172;-83
2022/07/11 01:08:42;;;;;;;2.70;1.40;;;;;;;;;;335376;29;960;-82
2022/07/11 01:08:52;;;;;;;2.47;1.40;;;;;;;;;;334677;29;1562;-83
2022/07/11 01:09:03;;;;;;;2.63;1.60;;;;;;;;;;333879;29;1439;-83
2022/07/11 01:09:13;;;;;;;2.92;1.60;;;;;;;;;;334974;29;1385;-83